createdAt,value
2018-07-09T00:00:17.096Z,65.58
2018-07-09T00:02:46.060Z,65.76
2018-07-09T00:05:14.936Z,65.59
2018-07-09T00:07:43.874Z,65.14
2018-07-09T00:10:29.713Z,64.96
2018-07-09T00:13:04.108Z,65.84
2018-07-09T00:15:33.038Z,66.49
2018-07-09T00:18:01.977Z,66.68
2018-07-09T00:20:30.881Z,66.68
2018-07-09T00:22:59.892Z,67.04
2018-07-09T00:25:28.924Z,66.80
2018-07-09T00:27:57.828Z,67.33
2018-07-09T00:30:27.092Z,66.66
2018-07-09T00:32:56.504Z,66.46
2018-07-09T00:35:25.524Z,65.90
2018-07-09T00:37:54.491Z,66.09
2018-07-09T00:40:23.422Z,66.60
2018-07-09T00:42:53.012Z,66.48
2018-07-09T00:45:21.916Z,66.42
2018-07-09T00:47:51.254Z,66.65
2018-07-09T00:50:20.310Z,66.74
2018-07-09T00:52:49.304Z,67.10
2018-07-09T00:55:18.602Z,67.94
2018-07-09T00:57:47.500Z,68.33
2018-07-09T01:00:16.432Z,67.96
2018-07-09T01:02:45.358Z,67.33
2018-07-09T01:05:14.327Z,67.09
2018-07-09T01:07:43.255Z,66.86
2018-07-09T01:10:12.199Z,67.32
2018-07-09T01:12:41.146Z,67.40
2018-07-09T01:15:10.121Z,67.37
2018-07-09T01:17:39.067Z,67.48
2018-07-09T01:20:08.005Z,67.84
2018-07-09T01:22:37.000Z,67.67
2018-07-09T01:25:06.161Z,67.44
2018-07-09T01:27:35.129Z,67.68
2018-07-09T01:30:09.556Z,67.83
2018-07-09T01:32:38.968Z,68.57
2018-07-09T01:35:09.002Z,69.23
2018-07-09T01:37:38.405Z,69.67
2018-07-09T01:40:07.431Z,69.77
2018-07-09T01:42:36.606Z,70.34
2018-07-09T01:45:10.983Z,70.66
2018-07-09T01:47:45.405Z,70.17
2018-07-09T01:50:14.387Z,69.92
2018-07-09T01:52:43.341Z,70.48
2018-07-09T01:55:12.281Z,71.34
2018-07-09T01:57:41.237Z,71.19
2018-07-09T02:00:10.173Z,71.99
2018-07-09T02:02:41.103Z,71.46
2018-07-09T02:05:10.085Z,71.46
2018-07-09T02:07:39.015Z,72.46
2018-07-09T02:10:08.407Z,72.40
2018-07-09T02:12:37.413Z,72.32
2018-07-09T02:15:06.349Z,71.85
2018-07-09T02:17:35.298Z,72.10
2018-07-09T02:20:04.270Z,71.16
2018-07-09T02:22:33.161Z,71.56
2018-07-09T02:25:02.088Z,71.34
2018-07-09T02:27:31.129Z,71.65
2018-07-09T02:30:00.125Z,71.93
2018-07-09T02:32:29.027Z,72.43
2018-07-09T02:34:57.977Z,72.03
2018-07-09T02:37:27.082Z,71.82
2018-07-09T02:39:55.984Z,72.50
2018-07-09T02:42:24.895Z,73.02
2018-07-09T02:44:53.912Z,72.58
2018-07-09T02:47:22.914Z,73.10
2018-07-09T02:49:51.824Z,72.85
2018-07-09T02:52:20.733Z,74.29
2018-07-09T02:54:49.685Z,74.15
2018-07-09T02:57:18.586Z,74.49
2018-07-09T02:59:47.547Z,75.22
2018-07-09T03:02:16.481Z,75.37
2018-07-09T03:04:45.396Z,75.18
2018-07-09T03:07:14.346Z,75.13
2018-07-09T03:09:43.302Z,75.36
2018-07-09T03:12:12.354Z,75.17
2018-07-09T03:14:41.231Z,75.14
2018-07-09T03:17:10.200Z,74.93
2018-07-09T03:19:39.125Z,74.89
2018-07-09T03:22:08.064Z,74.77
2018-07-09T03:24:37.004Z,74.94
2018-07-09T03:27:06.014Z,74.62
2018-07-09T03:29:34.976Z,74.68
2018-07-09T03:32:03.936Z,74.97
2018-07-09T03:34:32.870Z,75.21
2018-07-09T03:37:01.794Z,76.04
2018-07-09T03:39:30.756Z,76.40
2018-07-09T03:41:59.671Z,76.15
2018-07-09T03:44:28.672Z,76.60
2018-07-09T03:46:57.609Z,76.26
2018-07-09T03:49:26.524Z,76.14
2018-07-09T03:51:55.516Z,76.31
2018-07-09T03:54:24.491Z,75.74
2018-07-09T03:56:53.403Z,75.13
2018-07-09T03:59:22.395Z,74.68
2018-07-09T04:01:51.401Z,75.27
2018-07-09T04:04:20.403Z,75.01
2018-07-09T04:06:49.328Z,74.61
2018-07-09T04:09:18.271Z,73.89
2018-07-09T04:11:47.244Z,73.97
2018-07-09T04:14:16.159Z,74.43
2018-07-09T04:16:45.222Z,74.39
2018-07-09T04:19:14.113Z,75.11
2018-07-09T04:21:43.042Z,74.53
2018-07-09T04:24:11.989Z,74.29
2018-07-09T04:26:40.893Z,74.29
2018-07-09T04:29:09.878Z,74.81
2018-07-09T04:31:38.842Z,75.39
2018-07-09T04:34:07.817Z,75.74
2018-07-09T04:36:36.832Z,75.29
2018-07-09T04:39:06.824Z,75.25
2018-07-09T04:41:36.099Z,74.66
2018-07-09T04:44:05.112Z,74.30
2018-07-09T04:46:34.062Z,74.87
2018-07-09T04:49:03.008Z,75.89
2018-07-09T04:51:31.948Z,75.27
2018-07-09T04:54:00.912Z,75.61
2018-07-09T04:56:29.878Z,75.79
2018-07-09T04:58:58.766Z,75.19
2018-07-09T05:01:27.748Z,75.49
2018-07-09T05:03:56.672Z,76.14
2018-07-09T05:06:25.608Z,75.99
2018-07-09T05:08:54.573Z,76.08
2018-07-09T05:11:23.492Z,75.72
2018-07-09T05:13:52.460Z,75.61
2018-07-09T05:16:21.388Z,75.67
2018-07-09T05:18:50.330Z,76.52
2018-07-09T05:21:19.258Z,76.77
2018-07-09T05:23:48.252Z,76.48
2018-07-09T05:26:17.196Z,76.55
2018-07-09T05:28:46.122Z,76.56
2018-07-09T05:31:15.046Z,76.71
2018-07-09T05:33:43.956Z,75.66
2018-07-09T05:36:12.960Z,76.19
2018-07-09T05:38:42.190Z,76.36
2018-07-09T05:41:11.217Z,76.61
2018-07-09T05:43:40.192Z,76.36
2018-07-09T05:46:09.137Z,76.24
2018-07-09T05:48:38.106Z,76.50
2018-07-09T05:51:07.038Z,76.56
2018-07-09T05:53:35.955Z,75.99
2018-07-09T05:56:04.924Z,76.00
2018-07-09T05:58:39.348Z,76.45
2018-07-09T06:01:13.835Z,76.01
2018-07-09T06:03:42.788Z,75.46
2018-07-09T06:06:11.790Z,75.04
2018-07-09T06:08:46.752Z,75.30
2018-07-09T06:11:15.721Z,75.04
2018-07-09T06:13:50.233Z,74.79
2018-07-09T06:16:19.178Z,74.54
2018-07-09T06:18:48.192Z,74.67
2018-07-09T06:21:17.122Z,74.35
2018-07-09T06:23:46.028Z,73.32
2018-07-09T06:26:15.014Z,73.04
2018-07-09T06:28:43.933Z,72.60
2018-07-09T06:31:12.959Z,72.03
2018-07-09T06:33:47.552Z,72.03
2018-07-09T06:36:16.537Z,71.58
2018-07-09T06:38:45.441Z,70.21
2018-07-09T06:41:14.432Z,71.12
2018-07-09T06:43:43.420Z,70.66
2018-07-09T06:46:12.350Z,70.79
2018-07-09T06:48:41.334Z,69.36
2018-07-09T06:51:10.300Z,67.51
2018-07-09T06:53:39.237Z,67.31
2018-07-09T06:56:08.192Z,65.45
2018-07-09T06:58:37.096Z,63.97
2018-07-09T07:01:06.307Z,62.22
2018-07-09T07:03:35.232Z,61.37
2018-07-09T07:06:04.224Z,60.56
2018-07-09T07:08:33.177Z,58.60
2018-07-09T07:11:02.148Z,57.79
2018-07-09T07:13:31.136Z,56.44
2018-07-09T07:16:00.052Z,57.97
2018-07-09T07:18:28.966Z,57.65
2018-07-09T07:20:58.937Z,57.48
2018-07-09T07:23:33.564Z,58.18
2018-07-09T07:26:02.526Z,58.56
2018-07-09T07:28:31.469Z,57.97
2018-07-09T07:31:00.360Z,56.22
2018-07-09T07:33:29.328Z,54.98
2018-07-09T07:35:58.389Z,53.43
2018-07-09T07:38:27.309Z,52.41
2018-07-09T07:40:56.343Z,51.72
2018-07-09T07:43:25.296Z,51.63
2018-07-09T07:45:54.245Z,53.42
2018-07-09T07:48:23.285Z,55.36
2018-07-09T07:50:52.317Z,57.65
2018-07-09T07:53:21.265Z,58.72
2018-07-09T07:55:50.233Z,58.31
2018-07-09T07:58:24.704Z,58.50
2018-07-09T08:00:59.237Z,58.71
2018-07-09T08:03:28.206Z,59.21
2018-07-09T08:05:57.137Z,59.12
2018-07-09T08:08:26.151Z,58.74
2018-07-09T08:10:55.099Z,58.42
2018-07-09T08:13:28.502Z,58.76
2018-07-09T08:15:53.160Z,59.67
2018-07-09T08:18:22.096Z,59.97
2018-07-09T08:20:56.653Z,60.42
2018-07-09T08:23:25.606Z,60.66
2018-07-09T08:25:59.937Z,59.57
2018-07-09T08:28:28.860Z,59.34
2018-07-09T08:30:57.888Z,59.42
2018-07-09T08:33:26.796Z,60.39
2018-07-09T08:35:55.688Z,60.83
2018-07-09T08:38:24.604Z,60.15
2018-07-09T08:40:54.631Z,61.03
2018-07-09T08:43:23.576Z,60.46
2018-07-09T08:45:52.579Z,59.88
2018-07-09T08:48:21.532Z,59.17
2018-07-09T08:50:50.446Z,58.46
2018-07-09T08:53:23.036Z,59.54
2018-07-09T08:55:52.103Z,60.23
2018-07-09T08:58:21.202Z,60.30
2018-07-09T09:00:50.204Z,60.11
2018-07-09T09:03:19.121Z,60.05
2018-07-09T09:05:48.336Z,58.80
2018-07-09T09:08:17.312Z,57.29
2018-07-09T09:10:46.267Z,57.48
2018-07-09T09:13:15.238Z,57.44
2018-07-09T09:15:44.360Z,59.70
2018-07-09T09:18:13.304Z,59.56
2018-07-09T09:20:50.034Z,59.86
2018-07-09T09:23:18.977Z,60.18
2018-07-09T09:25:53.604Z,60.05
2018-07-09T09:28:22.601Z,59.49
2018-07-09T09:30:51.639Z,59.76
2018-07-09T09:33:23.924Z,60.26
2018-07-09T09:35:52.904Z,60.18
2018-07-09T09:38:21.880Z,60.32
2018-07-09T09:40:50.808Z,60.91
2018-07-09T09:43:19.712Z,60.50
2018-07-09T09:45:48.664Z,60.27
2018-07-09T09:48:17.624Z,60.26
2018-07-09T09:50:46.745Z,60.02
2018-07-09T09:53:15.678Z,60.01
2018-07-09T09:55:44.628Z,59.18
2018-07-09T09:58:13.512Z,58.72
2018-07-09T10:00:47.568Z,58.70
2018-07-09T10:03:16.528Z,58.91
2018-07-09T10:05:45.627Z,59.22
2018-07-09T10:08:14.614Z,58.40
2018-07-09T10:10:43.553Z,58.23
2018-07-09T10:13:14.563Z,59.04
2018-07-09T10:15:43.480Z,58.97
2018-07-09T10:18:12.426Z,58.40
2018-07-09T10:20:41.357Z,57.78
2018-07-09T10:23:10.452Z,57.96
2018-07-09T10:25:39.236Z,58.44
2018-07-09T10:28:08.172Z,58.46
2018-07-09T10:30:37.194Z,58.94
2018-07-09T10:33:06.209Z,59.68
2018-07-09T10:35:35.147Z,59.09
2018-07-09T10:38:05.157Z,58.50
2018-07-09T10:40:34.089Z,58.44
2018-07-09T10:43:03.053Z,58.54
2018-07-09T10:45:35.154Z,58.49
2018-07-09T10:48:04.187Z,57.47
2018-07-09T10:50:36.962Z,58.02
2018-07-09T10:53:05.921Z,57.01
2018-07-09T10:55:35.025Z,58.14
2018-07-09T10:58:03.967Z,58.26
2018-07-09T11:00:32.981Z,58.40
2018-07-09T11:03:01.904Z,58.65
2018-07-09T11:05:30.855Z,58.55
2018-07-09T11:08:06.168Z,58.30
2018-07-09T11:10:40.627Z,57.93
2018-07-09T11:13:15.186Z,58.79
2018-07-09T11:15:44.116Z,59.21
2018-07-09T11:18:16.398Z,58.46
2018-07-09T11:20:46.212Z,57.73
2018-07-09T11:23:15.200Z,58.23
2018-07-09T11:25:44.173Z,57.96
2018-07-09T11:28:13.126Z,57.93
2018-07-09T11:30:42.063Z,59.19
2018-07-09T11:33:14.712Z,59.56
2018-07-09T11:35:43.684Z,58.73
2018-07-09T11:38:14.633Z,58.72
2018-07-09T11:40:43.545Z,58.79
2018-07-09T11:43:12.498Z,59.05
2018-07-09T11:45:41.417Z,58.01
2018-07-09T11:48:10.330Z,57.20
2018-07-09T11:50:39.314Z,55.95
2018-07-09T11:53:08.322Z,56.00
2018-07-09T11:55:37.233Z,55.28
2018-07-09T11:58:06.161Z,56.56
2018-07-09T12:00:35.175Z,56.37
2018-07-09T12:03:04.129Z,56.18
2018-07-09T12:05:33.075Z,55.76
2018-07-09T12:08:02.115Z,56.22
2018-07-09T12:10:31.021Z,55.85
2018-07-09T12:13:00.001Z,56.00
2018-07-09T12:15:28.964Z,55.09
2018-07-09T12:17:57.906Z,54.93
2018-07-09T12:20:26.807Z,52.77
2018-07-09T12:22:55.789Z,53.60
2018-07-09T12:25:24.693Z,53.88
2018-07-09T12:27:53.626Z,54.28
2018-07-09T12:30:22.589Z,54.65
2018-07-09T12:32:57.199Z,53.44
2018-07-09T12:35:26.203Z,53.22
2018-07-09T12:37:55.233Z,53.70
2018-07-09T12:40:24.141Z,54.47
2018-07-09T12:42:53.141Z,55.51
2018-07-09T12:45:25.915Z,53.69
2018-07-09T12:47:55.135Z,53.97
2018-07-09T12:50:24.171Z,54.11
2018-07-09T12:52:53.980Z,54.21
2018-07-09T12:55:23.079Z,53.65
2018-07-09T12:57:52.043Z,53.37
2018-07-09T13:00:20.975Z,52.83
2018-07-09T13:02:50.059Z,53.77
2018-07-09T13:05:19.244Z,54.02
2018-07-09T13:07:48.139Z,54.61
2018-07-09T13:10:17.107Z,55.12
2018-07-09T13:12:45.992Z,55.33
2018-07-09T13:15:14.910Z,54.65
2018-07-09T13:17:43.861Z,53.44
2018-07-09T13:20:12.873Z,54.19
2018-07-09T13:22:41.771Z,54.71
2018-07-09T13:25:10.755Z,55.58
2018-07-09T13:27:39.665Z,55.02
2018-07-09T13:30:08.645Z,54.56
2018-07-09T13:32:37.637Z,54.34
2018-07-09T13:35:06.624Z,54.31
2018-07-09T13:37:35.551Z,54.61
2018-07-09T13:40:04.510Z,55.08
2018-07-09T13:42:33.475Z,54.23
2018-07-09T13:45:02.468Z,54.24
2018-07-09T13:47:31.449Z,54.49
2018-07-09T13:50:00.449Z,54.80
2018-07-09T13:52:29.387Z,54.88
2018-07-09T13:54:58.324Z,55.33
2018-07-09T13:57:27.262Z,56.11
2018-07-09T13:59:56.250Z,56.70
2018-07-09T14:02:25.153Z,55.51
2018-07-09T14:04:54.133Z,55.67
2018-07-09T14:07:23.074Z,56.25
2018-07-09T14:09:52.101Z,55.48
2018-07-09T14:12:21.041Z,55.80
2018-07-09T14:14:50.037Z,56.79
2018-07-09T14:17:18.937Z,55.80
2018-07-09T14:20:28.397Z,56.49
2018-07-09T14:22:57.593Z,57.22
2018-07-09T14:25:26.543Z,56.85
2018-07-09T14:27:55.749Z,56.80
2018-07-09T14:30:24.803Z,56.94
2018-07-09T14:32:53.818Z,57.08
2018-07-09T14:35:22.759Z,57.93
2018-07-09T14:37:51.871Z,58.34
2018-07-09T14:40:20.844Z,57.23
2018-07-09T14:42:49.766Z,56.66
2018-07-09T14:45:18.727Z,57.49
2018-07-09T14:47:47.686Z,56.97
2018-07-09T14:50:16.631Z,57.96
2018-07-09T14:52:45.627Z,58.24
2018-07-09T14:55:14.553Z,57.78
2018-07-09T14:57:43.450Z,57.69
2018-07-09T15:00:12.363Z,58.30
2018-07-09T15:02:41.303Z,58.84
2018-07-09T15:05:10.223Z,58.64
2018-07-09T15:07:39.274Z,58.48
2018-07-09T15:10:08.203Z,58.54
2018-07-09T15:12:37.131Z,59.37
2018-07-09T15:15:07.193Z,59.14
2018-07-09T15:17:36.138Z,58.58
2018-07-09T15:20:05.164Z,59.12
2018-07-09T15:22:34.107Z,58.20
2018-07-09T15:25:03.096Z,59.33
2018-07-09T15:27:31.981Z,59.86
2018-07-09T15:30:00.932Z,59.78
2018-07-09T15:32:31.041Z,61.10
2018-07-09T15:35:00.253Z,62.20
2018-07-09T15:37:29.661Z,61.94
2018-07-09T15:39:58.575Z,62.10
2018-07-09T15:42:27.686Z,61.06
2018-07-09T15:44:56.596Z,60.80
2018-07-09T15:47:25.601Z,61.66
2018-07-09T15:49:54.645Z,61.92
2018-07-09T15:52:23.579Z,62.13
2018-07-09T15:54:52.543Z,62.76
2018-07-09T15:57:26.977Z,62.12
2018-07-09T15:59:55.925Z,61.73
2018-07-09T16:02:24.851Z,62.35
2018-07-09T16:04:53.847Z,62.82
2018-07-09T16:07:22.749Z,63.41
2018-07-09T16:09:51.767Z,63.77
2018-07-09T16:12:20.687Z,64.50
2018-07-09T16:14:49.645Z,64.87
2018-07-09T16:17:18.599Z,64.66
2018-07-09T16:19:47.583Z,64.27
2018-07-09T16:22:16.575Z,65.05
2018-07-09T16:24:45.480Z,64.93
2018-07-09T16:27:14.425Z,65.76
2018-07-09T16:29:43.354Z,67.58
2018-07-09T16:32:12.298Z,67.77
2018-07-09T16:34:41.205Z,67.06
2018-07-09T16:37:10.121Z,66.37
2018-07-09T16:39:39.057Z,67.12
2018-07-09T16:42:08.070Z,67.28
2018-07-09T16:44:37.036Z,67.08
2018-07-09T16:47:06.054Z,67.54
2018-07-09T16:49:35.030Z,68.08
2018-07-09T16:52:03.983Z,68.04
2018-07-09T16:54:32.975Z,68.96
2018-07-09T16:57:04.976Z,70.13
2018-07-09T16:59:33.912Z,70.16
2018-07-09T17:02:02.826Z,70.38
2018-07-09T17:04:31.768Z,70.42
2018-07-09T17:07:00.794Z,69.83
2018-07-09T17:09:29.850Z,68.55
2018-07-09T17:11:58.792Z,68.32
2018-07-09T17:14:27.719Z,68.19
2018-07-09T17:16:56.688Z,66.75
2018-07-09T17:19:25.615Z,66.47
2018-07-09T17:22:00.296Z,66.08
2018-07-09T17:24:29.218Z,66.22
2018-07-09T17:26:58.355Z,66.06
2018-07-09T17:29:27.089Z,65.02
2018-07-09T17:31:56.057Z,64.77
2018-07-09T17:34:24.968Z,64.69
2018-07-09T17:36:54.003Z,64.63
2018-07-09T17:39:22.892Z,64.44
2018-07-09T17:41:51.968Z,64.56
2018-07-09T17:44:21.167Z,64.85
2018-07-09T17:46:50.194Z,64.81
2018-07-09T17:49:19.118Z,65.05
2018-07-09T17:51:50.073Z,64.15
2018-07-09T17:54:19.527Z,64.99
2018-07-09T17:56:48.431Z,64.38
2018-07-09T17:59:17.406Z,64.50
2018-07-09T18:01:46.349Z,64.21
2018-07-09T18:04:15.295Z,63.99
2018-07-09T18:06:44.260Z,64.10
2018-07-09T18:09:13.168Z,63.65
2018-07-09T18:11:48.300Z,63.36
2018-07-09T18:14:17.259Z,63.58
2018-07-09T18:16:46.197Z,63.42
2018-07-09T18:19:19.172Z,62.54
2018-07-09T18:21:48.107Z,62.71
2018-07-09T18:24:17.074Z,62.24
2018-07-09T18:26:46.042Z,62.00
2018-07-09T18:29:14.997Z,62.73
2018-07-09T18:31:44.028Z,62.81
2018-07-09T18:34:18.677Z,63.00
2018-07-09T18:36:53.232Z,62.57
2018-07-09T18:39:22.216Z,62.72
2018-07-09T18:41:51.346Z,62.24
2018-07-09T18:44:20.294Z,62.78
2018-07-09T18:46:49.208Z,62.99
2018-07-09T18:49:18.142Z,62.66
2018-07-09T18:51:47.091Z,62.61
2018-07-09T18:54:16.188Z,62.96
2018-07-09T18:56:45.157Z,62.99
2018-07-09T18:59:14.093Z,63.20
2018-07-09T19:01:43.100Z,64.06
2018-07-09T19:04:12.132Z,64.40
2018-07-09T19:06:51.754Z,64.27
2018-07-09T19:09:21.380Z,63.45
2018-07-09T19:11:50.337Z,63.62
2018-07-09T19:14:20.255Z,64.04
2018-07-09T19:17:00.376Z,64.78
2018-07-09T19:19:40.616Z,64.57
2018-07-09T19:22:09.634Z,64.21
2018-07-09T19:24:43.528Z,64.01
2018-07-09T19:27:11.352Z,62.66
2018-07-09T19:29:39.203Z,61.78
2018-07-09T19:32:07.091Z,61.60
2018-07-09T19:34:34.988Z,61.18
2018-07-09T19:37:02.827Z,61.04
2018-07-09T19:39:30.639Z,61.00
2018-07-09T19:41:58.491Z,61.53
2018-07-09T19:44:26.323Z,60.22
2018-07-09T19:46:54.179Z,60.92
2018-07-09T19:49:22.031Z,60.91
2018-07-09T19:51:49.896Z,60.32
2018-07-09T19:54:17.740Z,60.33
2018-07-09T19:56:45.556Z,60.34
2018-07-09T19:59:13.369Z,59.89
2018-07-09T20:01:41.266Z,60.27
2018-07-09T20:04:09.081Z,59.95
2018-07-09T20:06:36.897Z,60.32
2018-07-09T20:09:10.308Z,59.84
2018-07-09T20:11:43.434Z,58.80
2018-07-09T20:14:16.544Z,59.62
2018-07-09T20:16:49.672Z,58.91
2018-07-09T20:19:17.517Z,58.78
2018-07-09T20:21:45.383Z,58.63
2018-07-09T20:24:13.184Z,58.80
2018-07-09T20:26:41.049Z,58.80
2018-07-09T20:29:08.903Z,58.47
2018-07-09T20:31:36.776Z,58.03
2018-07-09T20:34:04.658Z,57.90
2018-07-09T20:36:32.544Z,57.77
2018-07-09T20:39:00.388Z,57.08
2018-07-09T20:41:28.226Z,57.10
2018-07-09T20:43:56.094Z,56.89
2018-07-09T20:46:23.964Z,56.99
2018-07-09T20:48:51.820Z,57.51
2018-07-09T20:51:19.640Z,57.10
2018-07-09T20:53:47.496Z,56.97
2018-07-09T20:56:15.334Z,57.23
2018-07-09T20:58:43.162Z,57.51
2018-07-09T21:01:10.996Z,57.82
2018-07-09T21:03:38.860Z,57.60
2018-07-09T21:06:06.702Z,57.99
2018-07-09T21:08:34.585Z,58.07
2018-07-09T21:11:02.450Z,57.87
2018-07-09T21:13:32.064Z,58.18
2018-07-09T21:16:00.083Z,58.61
2018-07-09T21:18:27.806Z,58.71
2018-07-09T21:20:55.641Z,59.24
2018-07-09T21:23:29.156Z,59.23
2018-07-09T21:25:58.673Z,59.31
2018-07-09T21:28:26.561Z,59.25
2018-07-09T21:30:54.366Z,59.37
2018-07-09T21:33:22.195Z,59.55
2018-07-09T21:35:50.034Z,59.41
2018-07-09T21:38:17.904Z,59.30
2018-07-09T21:40:45.807Z,59.08
2018-07-09T21:43:13.934Z,59.61
2018-07-09T21:45:41.796Z,59.69
2018-07-09T21:48:10.554Z,59.96
2018-07-09T21:50:37.524Z,59.44
2018-07-09T21:53:05.399Z,59.91
2018-07-09T21:55:33.199Z,59.70
2018-07-09T21:58:01.067Z,59.79
2018-07-09T22:00:29.308Z,59.21
2018-07-09T22:02:57.131Z,59.66
2018-07-09T22:05:25.095Z,56.88
2018-07-09T22:07:52.961Z,55.77
2018-07-09T22:10:20.821Z,54.43
2018-07-09T22:12:48.676Z,54.55
2018-07-09T22:15:16.473Z,53.87
2018-07-09T22:17:44.303Z,52.33
2018-07-09T22:20:12.158Z,52.04
2018-07-09T22:22:40.024Z,52.08
2018-07-09T22:25:07.838Z,52.56
2018-07-09T22:27:35.662Z,52.73
2018-07-09T22:30:03.853Z,52.59
2018-07-09T22:32:38.464Z,52.63
2018-07-09T22:35:13.064Z,52.60
2018-07-09T22:37:42.025Z,52.55
2018-07-09T22:40:11.106Z,52.11
2018-07-09T22:42:45.672Z,52.61
2018-07-09T22:45:14.587Z,52.95
2018-07-09T22:47:43.515Z,53.40
2018-07-09T22:50:12.479Z,53.45
2018-07-09T22:52:41.436Z,53.14
2018-07-09T22:55:21.808Z,53.33
2018-07-09T22:57:50.756Z,53.91
2018-07-09T23:00:20.087Z,54.47
2018-07-09T23:03:04.666Z,54.72
2018-07-09T23:05:35.647Z,55.64
2018-07-09T23:08:04.806Z,55.65
2018-07-09T23:11:52.716Z,55.90
2018-07-09T23:14:34.652Z,56.19
2018-07-09T23:17:14.870Z,57.96
2018-07-09T23:20:09.016Z,59.00
2018-07-09T23:22:36.848Z,59.07
2018-07-09T23:25:04.738Z,59.77
2018-07-09T23:27:32.593Z,59.20
2018-07-09T23:30:00.417Z,58.87
2018-07-09T23:32:28.261Z,59.07
2018-07-09T23:34:56.136Z,59.58
2018-07-09T23:37:24.071Z,59.67
2018-07-09T23:39:51.914Z,59.80
2018-07-09T23:42:19.742Z,60.28
2018-07-09T23:44:47.593Z,60.87
2018-07-09T23:47:16.345Z,59.33
2018-07-09T23:49:44.170Z,59.35
2018-07-09T23:52:12.092Z,58.34
2018-07-09T23:54:39.911Z,57.71
2018-07-09T23:59:22.738Z,57.63
